sensor_id;sensor_type;location;lat;lon;timestamp;pressure;altitude;pressure_sealevel;temperature;humidity
68948;BME280;55996;49.546;7.400;2023-01-09T00:02:20;96804.16;;;9.48;100.00
68948;BME280;55996;49.546;7.400;2023-01-09T00:04:45;96810.47;;;9.44;100.00
68948;BME280;55996;49.546;7.400;2023-01-09T00:07:11;96797.78;;;9.37;100.00
68948;BME280;55996;49.546;7.400;2023-01-09T00:09:36;96810.66;;;9.41;100.00
68948;BME280;55996;49.546;7.400;2023-01-09T00:12:02;96804.78;;;9.37;100.00
68948;BME280;55996;49.546;7.400;2023-01-09T00:14:27;96811.47;;;9.41;100.00
68948;BME280;55996;49.546;7.400;2023-01-09T00:16:54;96810.94;;;9.50;100.00
68948;BME280;55996;49.546;7.400;2023-01-09T00:19:19;96800.00;;;9.29;100.00
68948;BME280;55996;49.546;7.400;2023-01-09T00:21:45;96800.69;;;9.33;100.00
68948;BME280;55996;49.546;7.400;2023-01-09T00:24:10;96798.91;;;9.33;100.00
68948;BME280;55996;49.546;7.400;2023-01-09T00:26:36;96797.78;;;9.37;100.00
68948;BME280;55996;49.546;7.400;2023-01-09T00:29:01;96802.16;;;9.37;100.00
68948;BME280;55996;49.546;7.400;2023-01-09T00:31:27;96803.59;;;9.43;100.00
68948;BME280;55996;49.546;7.400;2023-01-09T00:36:17;96814.94;;;9.42;100.00
68948;BME280;55996;49.546;7.400;2023-01-09T00:38:43;96826.03;;;9.45;100.00
68948;BME280;55996;49.546;7.400;2023-01-09T00:41:11;96832.53;;;9.38;100.00
68948;BME280;55996;49.546;7.400;2023-01-09T00:43:45;96822.84;;;9.40;100.00
68948;BME280;55996;49.546;7.400;2023-01-09T00:46:12;96825.16;;;9.30;100.00
68948;BME280;55996;49.546;7.400;2023-01-09T00:48:41;96833.91;;;9.29;100.00
68948;BME280;55996;49.546;7.400;2023-01-09T00:51:08;96823.66;;;9.26;100.00
68948;BME280;55996;49.546;7.400;2023-01-09T00:53:36;96815.72;;;9.13;100.00
68948;BME280;55996;49.546;7.400;2023-01-09T00:56:06;96831.16;;;9.16;100.00
68948;BME280;55996;49.546;7.400;2023-01-09T00:58:33;96830.31;;;9.16;100.00
68948;BME280;55996;49.546;7.400;2023-01-09T01:00:59;96829.31;;;9.18;100.00
68948;BME280;55996;49.546;7.400;2023-01-09T01:03:25;96825.22;;;9.14;100.00
68948;BME280;55996;49.546;7.400;2023-01-09T01:05:51;96829.41;;;9.17;100.00
68948;BME280;55996;49.546;7.400;2023-01-09T01:08:35;96832.94;;;9.16;100.00
68948;BME280;55996;49.546;7.400;2023-01-09T01:11:05;96830.06;;;9.20;100.00
68948;BME280;55996;49.546;7.400;2023-01-09T01:13:37;96826.56;;;9.06;100.00
68948;BME280;55996;49.546;7.400;2023-01-09T01:16:05;96828.47;;;9.18;100.00
68948;BME280;55996;49.546;7.400;2023-01-09T01:18:30;96833.19;;;9.11;100.00
68948;BME280;55996;49.546;7.400;2023-01-09T01:20:56;96835.88;;;9.10;100.00
68948;BME280;55996;49.546;7.400;2023-01-09T01:23:22;96834.13;;;9.10;100.00
68948;BME280;55996;49.546;7.400;2023-01-09T01:25:47;96827.97;;;9.11;100.00
68948;BME280;55996;49.546;7.400;2023-01-09T01:28:13;96825.47;;;9.10;100.00
68948;BME280;55996;49.546;7.400;2023-01-09T01:30:40;96836.88;;;9.23;100.00
68948;BME280;55996;49.546;7.400;2023-01-09T01:33:06;96831.34;;;9.13;100.00
68948;BME280;55996;49.546;7.400;2023-01-09T01:35:31;96830.69;;;9.10;100.00
68948;BME280;55996;49.546;7.400;2023-01-09T01:37:57;96836.13;;;9.21;100.00
68948;BME280;55996;49.546;7.400;2023-01-09T01:40:22;96834.63;;;9.17;100.00
68948;BME280;55996;49.546;7.400;2023-01-09T01:42:50;96836.13;;;9.21;100.00
68948;BME280;55996;49.546;7.400;2023-01-09T01:45:17;96851.19;;;9.16;100.00
68948;BME280;55996;49.546;7.400;2023-01-09T01:47:58;96852.28;;;9.12;100.00
68948;BME280;55996;49.546;7.400;2023-01-09T01:50:33;96853.78;;;9.16;100.00
68948;BME280;55996;49.546;7.400;2023-01-09T01:53:13;96864.38;;;9.13;100.00
68948;BME280;55996;49.546;7.400;2023-01-09T01:58:25;96869.72;;;9.42;100.00
68948;BME280;55996;49.546;7.400;2023-01-09T02:00:51;96879.13;;;9.44;100.00
68948;BME280;55996;49.546;7.400;2023-01-09T02:03:20;96878.47;;;9.41;100.00
68948;BME280;55996;49.546;7.400;2023-01-09T02:05:47;96855.28;;;9.50;100.00
68948;BME280;55996;49.546;7.400;2023-01-09T02:08:13;96866.78;;;9.32;100.00
68948;BME280;55996;49.546;7.400;2023-01-09T02:10:39;96872.47;;;9.24;100.00
68948;BME280;55996;49.546;7.400;2023-01-09T02:13:05;96870.22;;;9.32;100.00
68948;BME280;55996;49.546;7.400;2023-01-09T02:20:50;96883.22;;;9.18;100.00
68948;BME280;55996;49.546;7.400;2023-01-09T02:38:18;96908.53;;;9.16;100.00
68948;BME280;55996;49.546;7.400;2023-01-09T02:41:26;96931.81;;;9.19;100.00
68948;BME280;55996;49.546;7.400;2023-01-09T02:43:42;96921.66;;;9.14;100.00
68948;BME280;55996;49.546;7.400;2023-01-09T02:46:21;96925.28;;;9.12;100.00
68948;BME280;55996;49.546;7.400;2023-01-09T02:48:49;96920.22;;;9.09;100.00
68948;BME280;55996;49.546;7.400;2023-01-09T02:51:59;96923.06;;;9.20;100.00
68948;BME280;55996;49.546;7.400;2023-01-09T02:54:27;96933.44;;;9.22;100.00
68948;BME280;55996;49.546;7.400;2023-01-09T03:06:20;96935.78;;;9.26;100.00
68948;BME280;55996;49.546;7.400;2023-01-09T03:08:27;96948.06;;;9.24;100.00
68948;BME280;55996;49.546;7.400;2023-01-09T03:11:01;96945.88;;;9.16;100.00
68948;BME280;55996;49.546;7.400;2023-01-09T03:16:06;96948.66;;;9.13;100.00
68948;BME280;55996;49.546;7.400;2023-01-09T03:18:35;96964.53;;;9.09;100.00
68948;BME280;55996;49.546;7.400;2023-01-09T03:21:01;96970.00;;;9.04;100.00
68948;BME280;55996;49.546;7.400;2023-01-09T03:23:57;96972.59;;;9.04;100.00
68948;BME280;55996;49.546;7.400;2023-01-09T03:26:24;96986.84;;;9.30;100.00
68948;BME280;55996;49.546;7.400;2023-01-09T03:28:51;96980.72;;;8.99;100.00
68948;BME280;55996;49.546;7.400;2023-01-09T03:31:17;96990.78;;;9.06;100.00
68948;BME280;55996;49.546;7.400;2023-01-09T03:33:43;96995.34;;;9.18;100.00
68948;BME280;55996;49.546;7.400;2023-01-09T03:36:10;97002.16;;;9.36;100.00
68948;BME280;55996;49.546;7.400;2023-01-09T03:38:36;97014.34;;;9.36;100.00
68948;BME280;55996;49.546;7.400;2023-01-09T03:41:02;97012.16;;;9.12;100.00
68948;BME280;55996;49.546;7.400;2023-01-09T03:43:27;97018.00;;;8.84;100.00
68948;BME280;55996;49.546;7.400;2023-01-09T03:45:53;97017.00;;;8.86;100.00
68948;BME280;55996;49.546;7.400;2023-01-09T03:48:18;97025.28;;;9.11;100.00
68948;BME280;55996;49.546;7.400;2023-01-09T03:50:44;97030.50;;;9.11;100.00
68948;BME280;55996;49.546;7.400;2023-01-09T03:53:14;97044.53;;;9.08;100.00
68948;BME280;55996;49.546;7.400;2023-01-09T03:55:47;97044.84;;;9.02;100.00
68948;BME280;55996;49.546;7.400;2023-01-09T03:58:14;97051.72;;;8.87;100.00
68948;BME280;55996;49.546;7.400;2023-01-09T04:00:40;97055.25;;;8.86;100.00
68948;BME280;55996;49.546;7.400;2023-01-09T04:03:07;97057.75;;;8.87;100.00
68948;BME280;55996;49.546;7.400;2023-01-09T04:05:33;97063.97;;;8.85;100.00
68948;BME280;55996;49.546;7.400;2023-01-09T04:07:59;97060.56;;;8.84;100.00
68948;BME280;55996;49.546;7.400;2023-01-09T04:10:25;97067.38;;;8.69;100.00
68948;BME280;55996;49.546;7.400;2023-01-09T04:12:50;97065.09;;;8.63;100.00
68948;BME280;55996;49.546;7.400;2023-01-09T04:15:16;97070.78;;;8.54;100.00
68948;BME280;55996;49.546;7.400;2023-01-09T04:17:41;97068.69;;;8.43;100.00
68948;BME280;55996;49.546;7.400;2023-01-09T04:20:08;97084.31;;;8.61;100.00
68948;BME280;55996;49.546;7.400;2023-01-09T04:22:33;97070.19;;;8.49;100.00
68948;BME280;55996;49.546;7.400;2023-01-09T04:24:59;97086.25;;;8.57;100.00
68948;BME280;55996;49.546;7.400;2023-01-09T04:27:24;97092.97;;;8.79;100.00
68948;BME280;55996;49.546;7.400;2023-01-09T04:29:50;97102.31;;;8.65;100.00
68948;BME280;55996;49.546;7.400;2023-01-09T04:32:16;97104.31;;;8.78;100.00
68948;BME280;55996;49.546;7.400;2023-01-09T04:34:41;97116.56;;;8.76;100.00
68948;BME280;55996;49.546;7.400;2023-01-09T04:37:07;97107.78;;;8.78;100.00
68948;BME280;55996;49.546;7.400;2023-01-09T04:39:32;97120.81;;;8.78;100.00
68948;BME280;55996;49.546;7.400;2023-01-09T04:41:58;97125.38;;;8.73;100.00
68948;BME280;55996;49.546;7.400;2023-01-09T04:44:24;97137.72;;;8.69;100.00
68948;BME280;55996;49.546;7.400;2023-01-09T04:46:55;97132.50;;;8.52;100.00
68948;BME280;55996;49.546;7.400;2023-01-09T04:49:21;97137.25;;;8.79;100.00
68948;BME280;55996;49.546;7.400;2023-01-09T04:51:47;97151.22;;;8.60;100.00
68948;BME280;55996;49.546;7.400;2023-01-09T04:54:13;97153.31;;;8.34;100.00
68948;BME280;55996;49.546;7.400;2023-01-09T04:56:39;97159.06;;;8.41;100.00
68948;BME280;55996;49.546;7.400;2023-01-09T04:59:05;97154.63;;;8.43;100.00
68948;BME280;55996;49.546;7.400;2023-01-09T05:01:31;97153.28;;;8.53;100.00
68948;BME280;55996;49.546;7.400;2023-01-09T05:03:56;97152.66;;;8.48;100.00
68948;BME280;55996;49.546;7.400;2023-01-09T05:06:22;97155.72;;;8.56;100.00
68948;BME280;55996;49.546;7.400;2023-01-09T05:08:48;97151.53;;;8.54;100.00
68948;BME280;55996;49.546;7.400;2023-01-09T05:11:13;97156.25;;;8.63;100.00
68948;BME280;55996;49.546;7.400;2023-01-09T05:13:39;97172.75;;;8.64;100.00
68948;BME280;55996;49.546;7.400;2023-01-09T05:16:04;97174.53;;;8.81;100.00
68948;BME280;55996;49.546;7.400;2023-01-09T05:18:30;97174.06;;;8.72;100.00
68948;BME280;55996;49.546;7.400;2023-01-09T05:20:55;97179.63;;;9.00;100.00
68948;BME280;55996;49.546;7.400;2023-01-09T05:23:21;97180.72;;;8.78;100.00
68948;BME280;55996;49.546;7.400;2023-01-09T05:25:46;97171.44;;;8.90;100.00
68948;BME280;55996;49.546;7.400;2023-01-09T05:28:11;97182.16;;;8.84;100.00
68948;BME280;55996;49.546;7.400;2023-01-09T05:30:37;97199.56;;;9.01;100.00
68948;BME280;55996;49.546;7.400;2023-01-09T05:33:02;97180.59;;;9.15;100.00
68948;BME280;55996;49.546;7.400;2023-01-09T05:35:28;97189.81;;;9.04;100.00
68948;BME280;55996;49.546;7.400;2023-01-09T05:37:53;97189.06;;;9.02;100.00
68948;BME280;55996;49.546;7.400;2023-01-09T05:40:20;97178.25;;;8.93;100.00
68948;BME280;55996;49.546;7.400;2023-01-09T05:42:45;97186.91;;;9.11;100.00
68948;BME280;55996;49.546;7.400;2023-01-09T05:45:11;97194.72;;;8.76;100.00
68948;BME280;55996;49.546;7.400;2023-01-09T05:47:37;97184.00;;;8.99;100.00
68948;BME280;55996;49.546;7.400;2023-01-09T05:50:03;97171.59;;;9.04;100.00
68948;BME280;55996;49.546;7.400;2023-01-09T05:52:31;97187.50;;;9.16;100.00
68948;BME280;55996;49.546;7.400;2023-01-09T05:54:56;97179.59;;;9.17;100.00
68948;BME280;55996;49.546;7.400;2023-01-09T05:57:22;97187.25;;;8.87;100.00
68948;BME280;55996;49.546;7.400;2023-01-09T05:59:47;97196.59;;;8.74;100.00
68948;BME280;55996;49.546;7.400;2023-01-09T06:02:13;97191.38;;;8.91;100.00
68948;BME280;55996;49.546;7.400;2023-01-09T06:04:38;97190.03;;;9.51;100.00
68948;BME280;55996;49.546;7.400;2023-01-09T06:07:04;97186.41;;;9.20;100.00
68948;BME280;55996;49.546;7.400;2023-01-09T06:09:29;97193.34;;;9.03;100.00
68948;BME280;55996;49.546;7.400;2023-01-09T06:11:55;97182.75;;;9.07;100.00
68948;BME280;55996;49.546;7.400;2023-01-09T06:14:21;97194.75;;;8.93;100.00
68948;BME280;55996;49.546;7.400;2023-01-09T06:16:47;97194.34;;;9.01;100.00
68948;BME280;55996;49.546;7.400;2023-01-09T06:19:12;97185.22;;;9.10;100.00
68948;BME280;55996;49.546;7.400;2023-01-09T06:21:38;97198.94;;;9.13;100.00
68948;BME280;55996;49.546;7.400;2023-01-09T06:24:03;97187.28;;;8.85;100.00
68948;BME280;55996;49.546;7.400;2023-01-09T06:26:29;97181.84;;;9.08;100.00
68948;BME280;55996;49.546;7.400;2023-01-09T06:28:54;97196.56;;;9.42;100.00
68948;BME280;55996;49.546;7.400;2023-01-09T06:31:24;97191.03;;;9.15;100.00
68948;BME280;55996;49.546;7.400;2023-01-09T06:33:49;97200.25;;;9.04;100.00
68948;BME280;55996;49.546;7.400;2023-01-09T06:36:15;97202.84;;;8.69;100.00
68948;BME280;55996;49.546;7.400;2023-01-09T06:38:41;97209.75;;;8.88;100.00
68948;BME280;55996;49.546;7.400;2023-01-09T06:41:06;97210.06;;;8.64;100.00
68948;BME280;55996;49.546;7.400;2023-01-09T06:43:32;97201.28;;;8.84;100.00
68948;BME280;55996;49.546;7.400;2023-01-09T06:45:57;97220.25;;;8.32;100.00
68948;BME280;55996;49.546;7.400;2023-01-09T06:48:23;97212.00;;;8.96;100.00
68948;BME280;55996;49.546;7.400;2023-01-09T06:50:52;97220.78;;;8.58;100.00
68948;BME280;55996;49.546;7.400;2023-01-09T06:53:18;97224.63;;;8.51;100.00
68948;BME280;55996;49.546;7.400;2023-01-09T06:55:45;97221.94;;;8.52;100.00
68948;BME280;55996;49.546;7.400;2023-01-09T06:58:10;97228.97;;;8.31;100.00
68948;BME280;55996;49.546;7.400;2023-01-09T07:00:36;97227.34;;;8.48;100.00
68948;BME280;55996;49.546;7.400;2023-01-09T07:03:03;97225.47;;;8.32;100.00
68948;BME280;55996;49.546;7.400;2023-01-09T07:05:29;97228.97;;;8.31;100.00
68948;BME280;55996;49.546;7.400;2023-01-09T07:07:54;97240.94;;;8.35;100.00
68948;BME280;55996;49.546;7.400;2023-01-09T07:10:21;97243.63;;;8.34;100.00
68948;BME280;55996;49.546;7.400;2023-01-09T07:12:47;97250.72;;;8.30;100.00
68948;BME280;55996;49.546;7.400;2023-01-09T07:15:12;97247.75;;;8.38;100.00
68948;BME280;55996;49.546;7.400;2023-01-09T07:17:38;97245.88;;;8.22;100.00
68948;BME280;55996;49.546;7.400;2023-01-09T07:20:03;97253.31;;;8.30;100.00
68948;BME280;55996;49.546;7.400;2023-01-09T07:22:29;97239.59;;;8.27;100.00
68948;BME280;55996;49.546;7.400;2023-01-09T07:24:54;97249.97;;;8.47;100.00
68948;BME280;55996;49.546;7.400;2023-01-09T07:27:20;97234.66;;;8.39;100.00
68948;BME280;55996;49.546;7.400;2023-01-09T07:29:46;97248.91;;;8.32;100.00
68948;BME280;55996;49.546;7.400;2023-01-09T07:32:12;97241.41;;;8.44;100.00
68948;BME280;55996;49.546;7.400;2023-01-09T07:34:37;97244.53;;;8.33;100.00
68948;BME280;55996;49.546;7.400;2023-01-09T07:37:02;97244.31;;;8.37;100.00
68948;BME280;55996;49.546;7.400;2023-01-09T07:39:28;97254.88;;;8.15;100.00
68948;BME280;55996;49.546;7.400;2023-01-09T07:41:53;97258.25;;;8.17;100.00
68948;BME280;55996;49.546;7.400;2023-01-09T07:44:19;97225.22;;;8.00;100.00
68948;BME280;55996;49.546;7.400;2023-01-09T07:46:44;97247.84;;;7.98;100.00
68948;BME280;55996;49.546;7.400;2023-01-09T07:49:09;97248.13;;;8.11;100.00
68948;BME280;55996;49.546;7.400;2023-01-09T07:51:35;97250.72;;;7.92;100.00
68948;BME280;55996;49.546;7.400;2023-01-09T07:54:03;97257.78;;;8.09;100.00
68948;BME280;55996;49.546;7.400;2023-01-09T07:56:28;97246.72;;;8.23;100.00
68948;BME280;55996;49.546;7.400;2023-01-09T07:58:54;97248.63;;;8.38;100.00
68948;BME280;55996;49.546;7.400;2023-01-09T08:01:19;97253.88;;;8.37;100.00
68948;BME280;55996;49.546;7.400;2023-01-09T08:03:44;97248.91;;;8.32;100.00
68948;BME280;55996;49.546;7.400;2023-01-09T08:06:10;97259.88;;;8.20;100.00
68948;BME280;55996;49.546;7.400;2023-01-09T08:08:35;97259.22;;;8.34;100.00
68948;BME280;55996;49.546;7.400;2023-01-09T08:11:01;97251.00;;;8.05;100.00
68948;BME280;55996;49.546;7.400;2023-01-09T08:13:26;97258.13;;;8.20;100.00
68948;BME280;55996;49.546;7.400;2023-01-09T08:15:51;97264.03;;;8.24;100.00
68948;BME280;55996;49.546;7.400;2023-01-09T08:18:17;97270.47;;;8.34;100.00
68948;BME280;55996;49.546;7.400;2023-01-09T08:20:42;97259.78;;;8.60;100.00
68948;BME280;55996;49.546;7.400;2023-01-09T08:23:08;97272.34;;;8.32;100.00
68948;BME280;55996;49.546;7.400;2023-01-09T08:25:33;97268.66;;;8.36;100.00
68948;BME280;55996;49.546;7.400;2023-01-09T08:27:59;97267.13;;;8.32;100.00
68948;BME280;55996;49.546;7.400;2023-01-09T08:30:24;97270.34;;;8.56;100.00
68948;BME280;55996;49.546;7.400;2023-01-09T08:32:51;97275.84;;;8.50;100.00
68948;BME280;55996;49.546;7.400;2023-01-09T08:35:17;97271.75;;;8.45;100.00
68948;BME280;55996;49.546;7.400;2023-01-09T08:37:44;97266.63;;;8.80;100.00
68948;BME280;55996;49.546;7.400;2023-01-09T08:40:11;97282.25;;;8.62;100.00
68948;BME280;55996;49.546;7.400;2023-01-09T08:42:36;97279.47;;;8.65;100.00
68948;BME280;55996;49.546;7.400;2023-01-09T08:45:20;97273.81;;;9.45;100.00
68948;BME280;55996;49.546;7.400;2023-01-09T08:48:04;97275.22;;;9.34;100.00
68948;BME280;55996;49.546;7.400;2023-01-09T08:50:30;97273.69;;;8.95;100.00
68948;BME280;55996;49.546;7.400;2023-01-09T08:52:55;97274.38;;;9.34;100.00
68948;BME280;55996;49.546;7.400;2023-01-09T08:55:21;97273.38;;;9.19;100.00
68948;BME280;55996;49.546;7.400;2023-01-09T08:57:48;97249.69;;;9.06;100.00
68948;BME280;55996;49.546;7.400;2023-01-09T09:00:15;97267.81;;;9.27;100.00
68948;BME280;55996;49.546;7.400;2023-01-09T09:02:40;97267.69;;;9.46;100.00
68948;BME280;55996;49.546;7.400;2023-01-09T09:05:06;97260.19;;;9.40;100.00
68948;BME280;55996;49.546;7.400;2023-01-09T09:07:31;97268.47;;;9.48;100.00
68948;BME280;55996;49.546;7.400;2023-01-09T09:09:57;97267.91;;;9.41;100.00
68948;BME280;55996;49.546;7.400;2023-01-09T09:12:22;97261.34;;;9.16;100.00
68948;BME280;55996;49.546;7.400;2023-01-09T09:14:48;97263.06;;;9.51;100.00
68948;BME280;55996;49.546;7.400;2023-01-09T09:17:31;97269.22;;;9.50;100.00
68948;BME280;55996;49.546;7.400;2023-01-09T09:19:58;97265.03;;;9.30;100.00
68948;BME280;55996;49.546;7.400;2023-01-09T09:22:24;97275.06;;;9.55;100.00
68948;BME280;55996;49.546;7.400;2023-01-09T09:24:49;97273.09;;;9.43;100.00
68948;BME280;55996;49.546;7.400;2023-01-09T09:27:15;97283.84;;;9.70;100.00
68948;BME280;55996;49.546;7.400;2023-01-09T09:29:40;97283.06;;;9.34;100.00
68948;BME280;55996;49.546;7.400;2023-01-09T09:32:06;97281.81;;;9.42;100.00
68948;BME280;55996;49.546;7.400;2023-01-09T09:34:31;97282.63;;;9.60;100.00
68948;BME280;55996;49.546;7.400;2023-01-09T09:36:56;97282.25;;;9.67;100.00
68948;BME280;55996;49.546;7.400;2023-01-09T09:39:22;97290.41;;;9.61;100.00
68948;BME280;55996;49.546;7.400;2023-01-09T09:55:39;97320.00;;;9.25;100.00
68948;BME280;55996;49.546;7.400;2023-01-09T10:00:35;97324.00;;;9.32;100.00
68948;BME280;55996;49.546;7.400;2023-01-09T10:03:10;97322.16;;;9.34;100.00
68948;BME280;55996;49.546;7.400;2023-01-09T10:05:42;97310.66;;;9.21;100.00
68948;BME280;55996;49.546;7.400;2023-01-09T10:10:54;97313.25;;;9.39;100.00
68948;BME280;55996;49.546;7.400;2023-01-09T10:13:22;97315.88;;;9.39;100.00
68948;BME280;55996;49.546;7.400;2023-01-09T10:19:03;97298.84;;;9.31;100.00
68948;BME280;55996;49.546;7.400;2023-01-09T10:26:49;97294.94;;;9.58;100.00
68948;BME280;55996;49.546;7.400;2023-01-09T10:37:23;97286.63;;;10.16;100.00
68948;BME280;55996;49.546;7.400;2023-01-09T10:43:37;97294.59;;;9.97;100.00
68948;BME280;55996;49.546;7.400;2023-01-09T10:45:40;97286.44;;;10.04;100.00
68948;BME280;55996;49.546;7.400;2023-01-09T10:50:50;97290.94;;;9.84;100.00
68948;BME280;55996;49.546;7.400;2023-01-09T10:53:21;97280.00;;;9.60;100.00
68948;BME280;55996;49.546;7.400;2023-01-09T10:55:50;97283.53;;;9.76;100.00
68948;BME280;55996;49.546;7.400;2023-01-09T10:58:20;97280.66;;;9.81;100.00
68948;BME280;55996;49.546;7.400;2023-01-09T11:00:46;97295.22;;;9.69;100.00
68948;BME280;55996;49.546;7.400;2023-01-09T11:03:14;97272.56;;;9.69;100.00
68948;BME280;55996;49.546;7.400;2023-01-09T11:05:40;97289.53;;;9.94;100.00
68948;BME280;55996;49.546;7.400;2023-01-09T11:13:28;97298.97;;;9.97;100.00
68948;BME280;55996;49.546;7.400;2023-01-09T11:18:39;97306.44;;;9.87;100.00
68948;BME280;55996;49.546;7.400;2023-01-09T11:21:27;97312.31;;;9.57;100.00
68948;BME280;55996;49.546;7.400;2023-01-09T11:23:54;97306.06;;;9.61;100.00
68948;BME280;55996;49.546;7.400;2023-01-09T11:26:25;97315.25;;;9.51;100.00
68948;BME280;55996;49.546;7.400;2023-01-09T11:31:36;97332.34;;;9.74;100.00
68948;BME280;55996;49.546;7.400;2023-01-09T11:34:02;97315.84;;;9.74;100.00
68948;BME280;55996;49.546;7.400;2023-01-09T11:36:29;97320.75;;;9.62;100.00
68948;BME280;55996;49.546;7.400;2023-01-09T11:38:57;97324.09;;;10.15;100.00
68948;BME280;55996;49.546;7.400;2023-01-09T11:41:30;97319.84;;;9.97;100.00
68948;BME280;55996;49.546;7.400;2023-01-09T11:43:57;97328.22;;;10.04;100.00
68948;BME280;55996;49.546;7.400;2023-01-09T11:49:04;97323.41;;;10.12;100.00
68948;BME280;55996;49.546;7.400;2023-01-09T11:51:32;97325.97;;;10.29;100.00
68948;BME280;55996;49.546;7.400;2023-01-09T11:54:07;97336.16;;;10.34;100.00
68948;BME280;55996;49.546;7.400;2023-01-09T11:56:37;97325.53;;;10.05;100.00
68948;BME280;55996;49.546;7.400;2023-01-09T11:59:14;97323.72;;;10.39;100.00
68948;BME280;55996;49.546;7.400;2023-01-09T12:02:16;97338.91;;;10.48;100.00
68948;BME280;55996;49.546;7.400;2023-01-09T12:12:27;97342.44;;;10.95;100.00
68948;BME280;55996;49.546;7.400;2023-01-09T12:15:22;97344.38;;;11.08;100.00
68948;BME280;55996;49.546;7.400;2023-01-09T12:42:34;97337.56;;;10.57;100.00
68948;BME280;55996;49.546;7.400;2023-01-09T12:53:56;97353.38;;;11.18;100.00
68948;BME280;55996;49.546;7.400;2023-01-09T12:56:29;97357.00;;;11.16;100.00
68948;BME280;55996;49.546;7.400;2023-01-09T13:01:43;97350.97;;;11.29;100.00
68948;BME280;55996;49.546;7.400;2023-01-09T13:04:26;97357.84;;;11.16;100.00
68948;BME280;55996;49.546;7.400;2023-01-09T13:06:58;97360.22;;;11.05;100.00
68948;BME280;55996;49.546;7.400;2023-01-09T13:09:31;97358.47;;;10.73;100.00
68948;BME280;55996;49.546;7.400;2023-01-09T13:12:06;97364.88;;;10.84;100.00
68948;BME280;55996;49.546;7.400;2023-01-09T13:14:46;97368.03;;;10.74;100.00
68948;BME280;55996;49.546;7.400;2023-01-09T13:17:18;97371.47;;;10.75;100.00
68948;BME280;55996;49.546;7.400;2023-01-09T13:19:46;97369.63;;;10.77;100.00
68948;BME280;55996;49.546;7.400;2023-01-09T13:22:12;97380.97;;;10.44;100.00
68948;BME280;55996;49.546;7.400;2023-01-09T13:25:18;97374.22;;;10.40;100.00
68948;BME280;55996;49.546;7.400;2023-01-09T13:27:39;97380.16;;;10.26;100.00
68948;BME280;55996;49.546;7.400;2023-01-09T13:30:24;97394.84;;;10.28;100.00
68948;BME280;55996;49.546;7.400;2023-01-09T13:33:19;97388.41;;;10.34;100.00
68948;BME280;55996;49.546;7.400;2023-01-09T13:35:48;97395.44;;;10.33;100.00
68948;BME280;55996;49.546;7.400;2023-01-09T13:38:19;97387.72;;;10.80;100.00
68948;BME280;55996;49.546;7.400;2023-01-09T13:40:46;97394.28;;;10.55;100.00
68948;BME280;55996;49.546;7.400;2023-01-09T13:43:11;97401.47;;;10.68;100.00
68948;BME280;55996;49.546;7.400;2023-01-09T13:45:39;97390.66;;;10.42;100.00
68948;BME280;55996;49.546;7.400;2023-01-09T13:50:42;97399.38;;;10.58;100.00
68948;BME280;55996;49.546;7.400;2023-01-09T14:01:01;97419.66;;;10.37;100.00
68948;BME280;55996;49.546;7.400;2023-01-09T14:08:25;97431.72;;;10.05;100.00
68948;BME280;55996;49.546;7.400;2023-01-09T14:10:53;97427.38;;;9.88;100.00
68948;BME280;55996;49.546;7.400;2023-01-09T14:18:47;97429.34;;;10.17;100.00
68948;BME280;55996;49.546;7.400;2023-01-09T14:21:14;97434.22;;;9.90;100.00
68948;BME280;55996;49.546;7.400;2023-01-09T14:23:47;97441.78;;;10.12;100.00
68948;BME280;55996;49.546;7.400;2023-01-09T14:26:50;97431.41;;;10.11;100.00
68948;BME280;55996;49.546;7.400;2023-01-09T14:29:39;97440.28;;;10.24;100.00
68948;BME280;55996;49.546;7.400;2023-01-09T14:38:36;97449.31;;;10.36;100.00
68948;BME280;55996;49.546;7.400;2023-01-09T14:41:03;97449.06;;;10.23;100.00
68948;BME280;55996;49.546;7.400;2023-01-09T14:43:38;97448.06;;;10.26;100.00
68948;BME280;55996;49.546;7.400;2023-01-09T14:46:11;97443.25;;;9.83;100.00
68948;BME280;55996;49.546;7.400;2023-01-09T14:48:40;97448.00;;;9.92;100.00
68948;BME280;55996;49.546;7.400;2023-01-09T14:51:15;97453.00;;;9.97;100.00
68948;BME280;55996;49.546;7.400;2023-01-09T14:53:41;97457.16;;;9.83;100.00
68948;BME280;55996;49.546;7.400;2023-01-09T14:56:24;97465.22;;;9.79;100.00
68948;BME280;55996;49.546;7.400;2023-01-09T14:59:05;97457.16;;;9.83;100.00
68948;BME280;55996;49.546;7.400;2023-01-09T15:01:32;97466.44;;;9.72;100.00
68948;BME280;55996;49.546;7.400;2023-01-09T15:04:16;97471.06;;;9.66;100.00
68948;BME280;55996;49.546;7.400;2023-01-09T15:06:44;97478.69;;;9.52;100.00
68948;BME280;55996;49.546;7.400;2023-01-09T15:11:56;97498.03;;;9.48;100.00
68948;BME280;55996;49.546;7.400;2023-01-09T15:17:02;97505.19;;;8.87;100.00
68948;BME280;55996;49.546;7.400;2023-01-09T15:19:29;97516.28;;;8.71;100.00
68948;BME280;55996;49.546;7.400;2023-01-09T15:22:02;97528.50;;;8.90;100.00
68948;BME280;55996;49.546;7.400;2023-01-09T15:24:30;97527.66;;;9.28;100.00
68948;BME280;55996;49.546;7.400;2023-01-09T15:27:03;97535.59;;;8.86;100.00
68948;BME280;55996;49.546;7.400;2023-01-09T15:29:29;97552.59;;;8.95;100.00
68948;BME280;55996;49.546;7.400;2023-01-09T15:32:10;97547.53;;;8.92;100.00
68948;BME280;55996;49.546;7.400;2023-01-09T15:34:42;97561.19;;;8.58;100.00
68948;BME280;55996;49.546;7.400;2023-01-09T15:39:49;97564.53;;;8.80;100.00
68948;BME280;55996;49.546;7.400;2023-01-09T15:42:22;97573.69;;;8.70;100.00
68948;BME280;55996;49.546;7.400;2023-01-09T15:45:14;97584.13;;;8.89;100.00
68948;BME280;55996;49.546;7.400;2023-01-09T15:47:43;97580.16;;;8.61;100.00
68948;BME280;55996;49.546;7.400;2023-01-09T15:50:13;97587.56;;;8.50;100.00
68948;BME280;55996;49.546;7.400;2023-01-09T15:52:40;97599.56;;;8.54;100.00
68948;BME280;55996;49.546;7.400;2023-01-09T15:57:51;97606.31;;;8.58;100.00
68948;BME280;55996;49.546;7.400;2023-01-09T16:00:37;97621.56;;;8.67;100.00
68948;BME280;55996;49.546;7.400;2023-01-09T16:03:19;97621.13;;;9.18;100.00